sensor_id;sensor_type;location;lat;lon;timestamp;P1;durP1;ratioP1;P2;durP2;ratioP2
75990;SDS011;64673;52.276;10.560;2023-03-23T00:02:14;2.55;;;1.30;;
75990;SDS011;64673;52.276;10.560;2023-03-23T00:04:39;2.78;;;1.00;;
75990;SDS011;64673;52.276;10.560;2023-03-23T00:07:07;3.08;;;1.00;;
75990;SDS011;64673;52.276;10.560;2023-03-23T00:09:33;3.75;;;1.52;;
75990;SDS011;64673;52.276;10.560;2023-03-23T00:12:05;4.85;;;1.20;;
75990;SDS011;64673;52.276;10.560;2023-03-23T00:14:32;2.50;;;0.90;;
75990;SDS011;64673;52.276;10.560;2023-03-23T00:17:09;3.45;;;1.60;;
75990;SDS011;64673;52.276;10.560;2023-03-23T00:19:38;2.75;;;1.10;;
75990;SDS011;64673;52.276;10.560;2023-03-23T00:22:13;2.15;;;1.02;;
75990;SDS011;64673;52.276;10.560;2023-03-23T00:24:40;3.10;;;1.08;;
75990;SDS011;64673;52.276;10.560;2023-03-23T00:27:06;3.63;;;1.65;;
75990;SDS011;64673;52.276;10.560;2023-03-23T00:29:33;4.88;;;1.48;;
75990;SDS011;64673;52.276;10.560;2023-03-23T00:31:59;13.88;;;1.52;;
75990;SDS011;64673;52.276;10.560;2023-03-23T00:34:24;2.72;;;1.33;;
75990;SDS011;64673;52.276;10.560;2023-03-23T00:36:54;2.03;;;1.20;;
75990;SDS011;64673;52.276;10.560;2023-03-23T00:39:21;5.57;;;1.00;;
75990;SDS011;64673;52.276;10.560;2023-03-23T00:41:49;3.05;;;1.27;;
75990;SDS011;64673;52.276;10.560;2023-03-23T00:44:15;3.97;;;1.30;;
75990;SDS011;64673;52.276;10.560;2023-03-23T00:46:44;3.78;;;1.13;;
75990;SDS011;64673;52.276;10.560;2023-03-23T00:49:14;3.08;;;1.27;;
75990;SDS011;64673;52.276;10.560;2023-03-23T00:51:42;1.60;;;0.80;;
75990;SDS011;64673;52.276;10.560;2023-03-23T00:54:08;2.13;;;0.98;;
75990;SDS011;64673;52.276;10.560;2023-03-23T00:56:34;1.95;;;0.80;;
75990;SDS011;64673;52.276;10.560;2023-03-23T00:59:00;2.30;;;1.00;;
75990;SDS011;64673;52.276;10.560;2023-03-23T01:01:26;2.00;;;0.60;;
75990;SDS011;64673;52.276;10.560;2023-03-23T01:03:51;2.28;;;0.80;;
75990;SDS011;64673;52.276;10.560;2023-03-23T01:06:25;2.60;;;0.75;;
75990;SDS011;64673;52.276;10.560;2023-03-23T01:08:51;2.30;;;0.75;;
75990;SDS011;64673;52.276;10.560;2023-03-23T01:13:44;3.40;;;1.00;;
75990;SDS011;64673;52.276;10.560;2023-03-23T01:16:10;1.35;;;0.70;;
75990;SDS011;64673;52.276;10.560;2023-03-23T01:18:36;2.20;;;0.80;;
75990;SDS011;64673;52.276;10.560;2023-03-23T01:21:08;1.20;;;0.70;;
75990;SDS011;64673;52.276;10.560;2023-03-23T01:23:36;3.65;;;0.70;;
75990;SDS011;64673;52.276;10.560;2023-03-23T01:28:56;2.47;;;0.90;;
75990;SDS011;64673;52.276;10.560;2023-03-23T01:31:23;1.65;;;0.80;;
75990;SDS011;64673;52.276;10.560;2023-03-23T01:33:50;1.33;;;0.73;;
75990;SDS011;64673;52.276;10.560;2023-03-23T01:36:17;2.10;;;0.95;;
75990;SDS011;64673;52.276;10.560;2023-03-23T01:38:45;4.43;;;1.10;;
75990;SDS011;64673;52.276;10.560;2023-03-23T01:41:12;2.35;;;1.35;;
75990;SDS011;64673;52.276;10.560;2023-03-23T01:43:54;2.05;;;1.17;;
75990;SDS011;64673;52.276;10.560;2023-03-23T01:46:20;3.03;;;1.10;;
75990;SDS011;64673;52.276;10.560;2023-03-23T01:48:47;2.47;;;1.25;;
75990;SDS011;64673;52.276;10.560;2023-03-23T01:51:15;5.38;;;1.58;;
75990;SDS011;64673;52.276;10.560;2023-03-23T01:53:44;3.67;;;1.08;;
75990;SDS011;64673;52.276;10.560;2023-03-23T01:56:14;2.05;;;1.08;;
75990;SDS011;64673;52.276;10.560;2023-03-23T01:58:45;2.53;;;1.00;;
75990;SDS011;64673;52.276;10.560;2023-03-23T02:01:11;4.10;;;1.17;;
75990;SDS011;64673;52.276;10.560;2023-03-23T02:03:41;2.13;;;1.05;;
75990;SDS011;64673;52.276;10.560;2023-03-23T02:06:10;1.70;;;0.80;;
75990;SDS011;64673;52.276;10.560;2023-03-23T02:08:35;2.22;;;0.82;;
75990;SDS011;64673;52.276;10.560;2023-03-23T02:11:13;3.50;;;1.00;;
75990;SDS011;64673;52.276;10.560;2023-03-23T02:13:40;1.80;;;0.98;;
75990;SDS011;64673;52.276;10.560;2023-03-23T02:19:03;2.08;;;0.68;;
75990;SDS011;64673;52.276;10.560;2023-03-23T02:21:38;7.20;;;1.00;;
75990;SDS011;64673;52.276;10.560;2023-03-23T02:30:09;3.60;;;1.15;;
75990;SDS011;64673;52.276;10.560;2023-03-23T02:35:23;3.88;;;1.40;;
75990;SDS011;64673;52.276;10.560;2023-03-23T02:38:04;2.28;;;1.02;;
75990;SDS011;64673;52.276;10.560;2023-03-23T02:40:36;4.25;;;1.30;;
75990;SDS011;64673;52.276;10.560;2023-03-23T02:43:06;3.95;;;1.52;;
75990;SDS011;64673;52.276;10.560;2023-03-23T02:45:36;4.85;;;1.27;;
75990;SDS011;64673;52.276;10.560;2023-03-23T02:48:03;3.63;;;1.60;;
75990;SDS011;64673;52.276;10.560;2023-03-23T02:50:30;4.68;;;1.30;;
75990;SDS011;64673;52.276;10.560;2023-03-23T02:55:24;2.72;;;1.10;;
75990;SDS011;64673;52.276;10.560;2023-03-23T02:57:53;4.53;;;0.93;;
75990;SDS011;64673;52.276;10.560;2023-03-23T03:00:19;2.05;;;0.90;;
75990;SDS011;64673;52.276;10.560;2023-03-23T03:02:49;5.35;;;1.08;;
75990;SDS011;64673;52.276;10.560;2023-03-23T03:07:59;3.08;;;1.15;;
75990;SDS011;64673;52.276;10.560;2023-03-23T03:16:05;3.67;;;0.90;;
75990;SDS011;64673;52.276;10.560;2023-03-23T03:18:42;3.35;;;1.00;;
75990;SDS011;64673;52.276;10.560;2023-03-23T03:21:11;2.03;;;0.95;;
75990;SDS011;64673;52.276;10.560;2023-03-23T03:23:39;2.15;;;1.02;;
75990;SDS011;64673;52.276;10.560;2023-03-23T03:26:07;4.97;;;0.90;;
75990;SDS011;64673;52.276;10.560;2023-03-23T03:28:36;2.35;;;1.00;;
75990;SDS011;64673;52.276;10.560;2023-03-23T03:31:03;2.35;;;1.15;;
75990;SDS011;64673;52.276;10.560;2023-03-23T03:33:30;3.42;;;0.82;;
75990;SDS011;64673;52.276;10.560;2023-03-23T03:36:01;2.42;;;0.93;;
75990;SDS011;64673;52.276;10.560;2023-03-23T03:38:28;3.28;;;1.13;;
75990;SDS011;64673;52.276;10.560;2023-03-23T03:40:54;2.80;;;1.33;;
75990;SDS011;64673;52.276;10.560;2023-03-23T03:43:20;3.03;;;1.00;;
75990;SDS011;64673;52.276;10.560;2023-03-23T03:45:46;5.05;;;1.17;;
75990;SDS011;64673;52.276;10.560;2023-03-23T03:48:11;1.83;;;0.95;;
75990;SDS011;64673;52.276;10.560;2023-03-23T03:50:37;1.85;;;0.70;;
75990;SDS011;64673;52.276;10.560;2023-03-23T03:53:04;3.13;;;1.08;;
75990;SDS011;64673;52.276;10.560;2023-03-23T03:55:30;3.17;;;0.90;;
75990;SDS011;64673;52.276;10.560;2023-03-23T03:58:00;2.50;;;1.00;;
75990;SDS011;64673;52.276;10.560;2023-03-23T04:00:27;1.70;;;1.17;;
75990;SDS011;64673;52.276;10.560;2023-03-23T04:02:53;1.70;;;1.00;;
75990;SDS011;64673;52.276;10.560;2023-03-23T04:05:20;5.22;;;1.20;;
75990;SDS011;64673;52.276;10.560;2023-03-23T04:07:47;2.00;;;1.00;;
75990;SDS011;64673;52.276;10.560;2023-03-23T04:10:16;3.65;;;1.10;;
75990;SDS011;64673;52.276;10.560;2023-03-23T04:12:44;2.13;;;1.35;;
75990;SDS011;64673;52.276;10.560;2023-03-23T04:15:10;3.70;;;1.30;;
75990;SDS011;64673;52.276;10.560;2023-03-23T04:17:35;2.75;;;1.27;;
75990;SDS011;64673;52.276;10.560;2023-03-23T04:20:01;2.53;;;1.75;;
75990;SDS011;64673;52.276;10.560;2023-03-23T04:22:32;2.97;;;1.73;;
75990;SDS011;64673;52.276;10.560;2023-03-23T04:25:00;4.15;;;1.80;;
75990;SDS011;64673;52.276;10.560;2023-03-23T04:27:29;4.18;;;2.28;;
75990;SDS011;64673;52.276;10.560;2023-03-23T04:29:55;4.13;;;2.08;;
75990;SDS011;64673;52.276;10.560;2023-03-23T04:32:22;4.57;;;2.17;;
75990;SDS011;64673;52.276;10.560;2023-03-23T04:34:49;6.13;;;2.28;;
75990;SDS011;64673;52.276;10.560;2023-03-23T04:37:15;4.35;;;1.95;;
75990;SDS011;64673;52.276;10.560;2023-03-23T04:39:40;4.03;;;2.33;;
75990;SDS011;64673;52.276;10.560;2023-03-23T04:42:06;5.18;;;1.92;;
75990;SDS011;64673;52.276;10.560;2023-03-23T04:44:31;4.25;;;1.77;;
75990;SDS011;64673;52.276;10.560;2023-03-23T04:46:57;4.65;;;1.58;;
75990;SDS011;64673;52.276;10.560;2023-03-23T04:49:26;9.32;;;1.90;;
75990;SDS011;64673;52.276;10.560;2023-03-23T04:51:51;5.85;;;2.10;;
75990;SDS011;64673;52.276;10.560;2023-03-23T04:54:17;3.78;;;1.73;;
75990;SDS011;64673;52.276;10.560;2023-03-23T04:56:42;4.20;;;1.27;;
75990;SDS011;64673;52.276;10.560;2023-03-23T04:59:08;3.55;;;1.65;;
75990;SDS011;64673;52.276;10.560;2023-03-23T05:01:33;2.85;;;1.30;;
75990;SDS011;64673;52.276;10.560;2023-03-23T05:04:01;2.83;;;1.10;;
75990;SDS011;64673;52.276;10.560;2023-03-23T05:06:27;3.33;;;1.42;;
75990;SDS011;64673;52.276;10.560;2023-03-23T05:08:52;2.60;;;1.00;;
75990;SDS011;64673;52.276;10.560;2023-03-23T05:11:18;1.58;;;0.90;;
75990;SDS011;64673;52.276;10.560;2023-03-23T05:13:43;1.90;;;1.10;;
75990;SDS011;64673;52.276;10.560;2023-03-23T05:16:09;2.58;;;1.20;;
75990;SDS011;64673;52.276;10.560;2023-03-23T05:18:34;2.70;;;1.20;;
75990;SDS011;64673;52.276;10.560;2023-03-23T05:21:01;2.47;;;1.05;;
75990;SDS011;64673;52.276;10.560;2023-03-23T05:23:27;2.00;;;1.20;;
75990;SDS011;64673;52.276;10.560;2023-03-23T05:25:55;2.03;;;1.15;;
75990;SDS011;64673;52.276;10.560;2023-03-23T05:28:25;2.95;;;1.02;;
75990;SDS011;64673;52.276;10.560;2023-03-23T05:30:51;2.85;;;1.35;;
75990;SDS011;64673;52.276;10.560;2023-03-23T05:33:17;5.05;;;1.45;;
75990;SDS011;64673;52.276;10.560;2023-03-23T05:35:42;2.85;;;0.90;;
75990;SDS011;64673;52.276;10.560;2023-03-23T05:38:08;3.67;;;1.42;;
75990;SDS011;64673;52.276;10.560;2023-03-23T05:40:33;2.75;;;1.15;;
75990;SDS011;64673;52.276;10.560;2023-03-23T05:42:58;1.60;;;0.93;;
75990;SDS011;64673;52.276;10.560;2023-03-23T05:45:24;3.10;;;1.10;;
75990;SDS011;64673;52.276;10.560;2023-03-23T05:47:51;1.85;;;1.00;;
75990;SDS011;64673;52.276;10.560;2023-03-23T05:50:16;2.00;;;1.02;;
75990;SDS011;64673;52.276;10.560;2023-03-23T05:52:42;2.58;;;1.10;;
75990;SDS011;64673;52.276;10.560;2023-03-23T05:55:08;1.70;;;0.90;;
75990;SDS011;64673;52.276;10.560;2023-03-23T05:57:34;1.90;;;1.00;;
75990;SDS011;64673;52.276;10.560;2023-03-23T05:59:59;1.85;;;0.90;;
75990;SDS011;64673;52.276;10.560;2023-03-23T06:02:30;2.30;;;0.80;;
75990;SDS011;64673;52.276;10.560;2023-03-23T06:04:56;3.63;;;1.73;;
75990;SDS011;64673;52.276;10.560;2023-03-23T06:07:22;2.05;;;1.02;;
75990;SDS011;64673;52.276;10.560;2023-03-23T06:09:49;4.40;;;1.27;;
75990;SDS011;64673;52.276;10.560;2023-03-23T06:12:15;2.65;;;1.30;;
75990;SDS011;64673;52.276;10.560;2023-03-23T06:14:44;3.22;;;1.48;;
75990;SDS011;64673;52.276;10.560;2023-03-23T06:17:11;4.18;;;1.80;;
75990;SDS011;64673;52.276;10.560;2023-03-23T06:19:36;2.80;;;1.55;;
75990;SDS011;64673;52.276;10.560;2023-03-23T06:22:01;4.32;;;1.50;;
75990;SDS011;64673;52.276;10.560;2023-03-23T06:24:27;2.63;;;1.30;;
75990;SDS011;64673;52.276;10.560;2023-03-23T06:26:52;1.98;;;1.35;;
75990;SDS011;64673;52.276;10.560;2023-03-23T06:29:18;1.88;;;1.00;;
75990;SDS011;64673;52.276;10.560;2023-03-23T06:31:45;2.50;;;1.13;;
75990;SDS011;64673;52.276;10.560;2023-03-23T06:34:13;1.88;;;0.90;;
75990;SDS011;64673;52.276;10.560;2023-03-23T06:36:39;3.83;;;1.20;;
75990;SDS011;64673;52.276;10.560;2023-03-23T06:39:05;3.85;;;1.77;;
75990;SDS011;64673;52.276;10.560;2023-03-23T06:41:31;3.20;;;1.40;;
75990;SDS011;64673;52.276;10.560;2023-03-23T06:43:57;3.95;;;1.63;;
75990;SDS011;64673;52.276;10.560;2023-03-23T06:46:23;3.67;;;1.30;;
75990;SDS011;64673;52.276;10.560;2023-03-23T06:48:48;3.85;;;1.10;;
75990;SDS011;64673;52.276;10.560;2023-03-23T06:51:15;2.95;;;1.23;;
75990;SDS011;64673;52.276;10.560;2023-03-23T06:53:41;2.20;;;1.13;;
75990;SDS011;64673;52.276;10.560;2023-03-23T06:56:07;2.58;;;0.70;;
75990;SDS011;64673;52.276;10.560;2023-03-23T06:58:33;2.20;;;0.80;;
75990;SDS011;64673;52.276;10.560;2023-03-23T07:00:58;2.40;;;1.02;;
75990;SDS011;64673;52.276;10.560;2023-03-23T07:03:24;2.33;;;1.00;;
75990;SDS011;64673;52.276;10.560;2023-03-23T07:05:51;1.85;;;0.73;;
75990;SDS011;64673;52.276;10.560;2023-03-23T07:08:16;1.67;;;0.90;;
75990;SDS011;64673;52.276;10.560;2023-03-23T07:10:42;2.50;;;0.80;;
75990;SDS011;64673;52.276;10.560;2023-03-23T07:13:07;2.25;;;0.90;;
75990;SDS011;64673;52.276;10.560;2023-03-23T07:15:32;2.97;;;0.68;;
75990;SDS011;64673;52.276;10.560;2023-03-23T07:17:58;1.50;;;0.68;;
75990;SDS011;64673;52.276;10.560;2023-03-23T07:20:23;1.65;;;0.80;;
75990;SDS011;64673;52.276;10.560;2023-03-23T07:22:49;1.55;;;1.00;;
75990;SDS011;64673;52.276;10.560;2023-03-23T07:25:15;4.15;;;1.20;;
75990;SDS011;64673;52.276;10.560;2023-03-23T07:27:41;2.10;;;0.95;;
75990;SDS011;64673;52.276;10.560;2023-03-23T07:30:06;2.85;;;1.23;;
75990;SDS011;64673;52.276;10.560;2023-03-23T07:32:32;3.10;;;1.20;;
75990;SDS011;64673;52.276;10.560;2023-03-23T07:34:58;2.72;;;1.40;;
75990;SDS011;64673;52.276;10.560;2023-03-23T07:37:23;3.67;;;1.75;;
75990;SDS011;64673;52.276;10.560;2023-03-23T07:39:49;2.53;;;1.48;;
75990;SDS011;64673;52.276;10.560;2023-03-23T07:42:14;2.58;;;1.20;;
75990;SDS011;64673;52.276;10.560;2023-03-23T07:44:40;2.92;;;1.40;;
75990;SDS011;64673;52.276;10.560;2023-03-23T07:47:05;3.72;;;1.40;;
75990;SDS011;64673;52.276;10.560;2023-03-23T07:49:31;4.05;;;1.60;;
75990;SDS011;64673;52.276;10.560;2023-03-23T07:51:57;3.83;;;1.52;;
75990;SDS011;64673;52.276;10.560;2023-03-23T07:54:23;2.75;;;1.27;;
75990;SDS011;64673;52.276;10.560;2023-03-23T07:56:48;3.55;;;1.30;;
75990;SDS011;64673;52.276;10.560;2023-03-23T07:59:14;3.10;;;1.10;;
75990;SDS011;64673;52.276;10.560;2023-03-23T08:01:40;4.00;;;1.42;;
75990;SDS011;64673;52.276;10.560;2023-03-23T08:04:05;2.40;;;1.20;;
75990;SDS011;64673;52.276;10.560;2023-03-23T08:06:32;2.45;;;0.80;;
75990;SDS011;64673;52.276;10.560;2023-03-23T08:08:59;3.20;;;0.90;;
75990;SDS011;64673;52.276;10.560;2023-03-23T08:11:25;1.58;;;0.70;;
75990;SDS011;64673;52.276;10.560;2023-03-23T08:13:51;3.50;;;1.20;;
75990;SDS011;64673;52.276;10.560;2023-03-23T08:16:17;1.00;;;0.70;;
75990;SDS011;64673;52.276;10.560;2023-03-23T08:18:43;2.85;;;0.90;;
75990;SDS011;64673;52.276;10.560;2023-03-23T08:21:09;1.77;;;1.00;;
75990;SDS011;64673;52.276;10.560;2023-03-23T08:23:35;1.58;;;0.80;;
75990;SDS011;64673;52.276;10.560;2023-03-23T08:26:07;2.80;;;0.75;;
75990;SDS011;64673;52.276;10.560;2023-03-23T08:28:33;3.30;;;0.85;;
75990;SDS011;64673;52.276;10.560;2023-03-23T08:31:00;2.05;;;0.80;;
75990;SDS011;64673;52.276;10.560;2023-03-23T08:33:25;1.25;;;0.65;;
75990;SDS011;64673;52.276;10.560;2023-03-23T08:35:56;1.95;;;0.70;;
75990;SDS011;64673;52.276;10.560;2023-03-23T08:38:22;2.22;;;0.90;;
75990;SDS011;64673;52.276;10.560;2023-03-23T08:40:48;2.25;;;0.90;;
75990;SDS011;64673;52.276;10.560;2023-03-23T08:43:15;1.98;;;0.80;;
75990;SDS011;64673;52.276;10.560;2023-03-23T08:45:41;1.52;;;0.70;;
75990;SDS011;64673;52.276;10.560;2023-03-23T08:48:07;1.88;;;0.77;;
75990;SDS011;64673;52.276;10.560;2023-03-23T08:50:34;1.30;;;0.60;;
75990;SDS011;64673;52.276;10.560;2023-03-23T08:53:00;1.55;;;0.77;;
75990;SDS011;64673;52.276;10.560;2023-03-23T08:55:26;1.88;;;0.80;;
75990;SDS011;64673;52.276;10.560;2023-03-23T08:57:51;4.32;;;1.10;;
75990;SDS011;64673;52.276;10.560;2023-03-23T09:00:18;2.97;;;1.08;;
75990;SDS011;64673;52.276;10.560;2023-03-23T09:02:47;1.70;;;1.02;;
75990;SDS011;64673;52.276;10.560;2023-03-23T09:05:14;3.40;;;1.00;;
75990;SDS011;64673;52.276;10.560;2023-03-23T09:10:07;2.05;;;0.90;;
75990;SDS011;64673;52.276;10.560;2023-03-23T09:12:34;2.53;;;1.00;;
75990;SDS011;64673;52.276;10.560;2023-03-23T09:15:00;1.85;;;0.90;;
75990;SDS011;64673;52.276;10.560;2023-03-23T09:17:30;2.85;;;0.77;;
75990;SDS011;64673;52.276;10.560;2023-03-23T09:19:56;1.73;;;0.80;;
75990;SDS011;64673;52.276;10.560;2023-03-23T09:22:21;3.50;;;1.13;;
75990;SDS011;64673;52.276;10.560;2023-03-23T09:24:48;1.77;;;0.80;;
75990;SDS011;64673;52.276;10.560;2023-03-23T09:27:15;1.42;;;1.05;;
75990;SDS011;64673;52.276;10.560;2023-03-23T09:29:41;1.67;;;0.90;;
75990;SDS011;64673;52.276;10.560;2023-03-23T09:32:06;5.00;;;1.02;;
75990;SDS011;64673;52.276;10.560;2023-03-23T09:34:33;3.28;;;0.93;;
75990;SDS011;64673;52.276;10.560;2023-03-23T09:37:00;2.45;;;0.70;;
75990;SDS011;64673;52.276;10.560;2023-03-23T09:39:29;1.45;;;0.70;;
75990;SDS011;64673;52.276;10.560;2023-03-23T09:50:25;2.97;;;0.80;;
75990;SDS011;64673;52.276;10.560;2023-03-23T09:55:29;2.08;;;0.80;;
75990;SDS011;64673;52.276;10.560;2023-03-23T09:57:56;2.60;;;1.00;;
75990;SDS011;64673;52.276;10.560;2023-03-23T10:00:40;1.85;;;0.90;;
75990;SDS011;64673;52.276;10.560;2023-03-23T10:03:13;1.83;;;0.70;;
75990;SDS011;64673;52.276;10.560;2023-03-23T10:05:47;4.75;;;0.90;;
75990;SDS011;64673;52.276;10.560;2023-03-23T10:08:16;1.58;;;0.82;;
75990;SDS011;64673;52.276;10.560;2023-03-23T10:16:03;2.03;;;0.73;;
75990;SDS011;64673;52.276;10.560;2023-03-23T10:21:03;2.35;;;1.17;;
75990;SDS011;64673;52.276;10.560;2023-03-23T10:23:43;2.60;;;1.13;;
75990;SDS011;64673;52.276;10.560;2023-03-23T10:26:29;1.90;;;0.90;;
75990;SDS011;64673;52.276;10.560;2023-03-23T10:31:38;4.72;;;0.95;;
75990;SDS011;64673;52.276;10.560;2023-03-23T10:34:12;1.98;;;1.02;;
75990;SDS011;64673;52.276;10.560;2023-03-23T10:37:03;2.60;;;0.85;;
75990;SDS011;64673;52.276;10.560;2023-03-23T10:42:27;2.20;;;1.00;;
75990;SDS011;64673;52.276;10.560;2023-03-23T10:44:56;3.13;;;0.80;;
75990;SDS011;64673;52.276;10.560;2023-03-23T10:47:23;2.80;;;0.80;;
75990;SDS011;64673;52.276;10.560;2023-03-23T10:49:51;1.65;;;0.70;;
75990;SDS011;64673;52.276;10.560;2023-03-23T10:52:27;2.90;;;1.10;;
75990;SDS011;64673;52.276;10.560;2023-03-23T10:57:58;2.25;;;0.80;;
75990;SDS011;64673;52.276;10.560;2023-03-23T11:00:26;2.15;;;0.82;;
75990;SDS011;64673;52.276;10.560;2023-03-23T11:03:00;3.25;;;0.80;;
75990;SDS011;64673;52.276;10.560;2023-03-23T11:05:36;4.15;;;0.93;;
75990;SDS011;64673;52.276;10.560;2023-03-23T11:08:02;4.28;;;1.83;;
75990;SDS011;64673;52.276;10.560;2023-03-23T11:10:39;2.55;;;0.90;;
75990;SDS011;64673;52.276;10.560;2023-03-23T11:13:12;1.73;;;0.80;;
75990;SDS011;64673;52.276;10.560;2023-03-23T11:15:40;2.38;;;0.60;;
75990;SDS011;64673;52.276;10.560;2023-03-23T11:18:10;1.35;;;0.47;;
75990;SDS011;64673;52.276;10.560;2023-03-23T11:20:39;4.75;;;0.80;;
75990;SDS011;64673;52.276;10.560;2023-03-23T11:23:49;3.33;;;0.77;;
75990;SDS011;64673;52.276;10.560;2023-03-23T11:25:59;2.90;;;0.88;;
75990;SDS011;64673;52.276;10.560;2023-03-23T11:28:32;5.65;;;0.88;;
75990;SDS011;64673;52.276;10.560;2023-03-23T11:31:04;2.00;;;0.70;;
75990;SDS011;64673;52.276;10.560;2023-03-23T11:33:46;3.53;;;0.80;;
75990;SDS011;64673;52.276;10.560;2023-03-23T11:36:16;2.05;;;0.95;;
75990;SDS011;64673;52.276;10.560;2023-03-23T11:38:42;4.63;;;1.25;;
75990;SDS011;64673;52.276;10.560;2023-03-23T11:41:12;2.40;;;0.80;;
75990;SDS011;64673;52.276;10.560;2023-03-23T11:43:45;5.00;;;0.90;;
75990;SDS011;64673;52.276;10.560;2023-03-23T11:46:18;6.47;;;0.77;;
75990;SDS011;64673;52.276;10.560;2023-03-23T11:51:33;4.50;;;0.82;;
75990;SDS011;64673;52.276;10.560;2023-03-23T11:59:38;1.58;;;0.70;;
75990;SDS011;64673;52.276;10.560;2023-03-23T12:02:19;3.25;;;0.80;;
75990;SDS011;64673;52.276;10.560;2023-03-23T12:10:59;2.70;;;0.75;;
75990;SDS011;64673;52.276;10.560;2023-03-23T12:30:21;2.08;;;0.52;;
75990;SDS011;64673;52.276;10.560;2023-03-23T12:40:34;5.20;;;0.90;;
75990;SDS011;64673;52.276;10.560;2023-03-23T12:49:31;4.07;;;0.90;;
75990;SDS011;64673;52.276;10.560;2023-03-23T12:52:14;3.47;;;1.23;;
75990;SDS011;64673;52.276;10.560;2023-03-23T12:57:25;3.30;;;0.88;;
75990;SDS011;64673;52.276;10.560;2023-03-23T13:00:02;3.33;;;0.85;;
75990;SDS011;64673;52.276;10.560;2023-03-23T13:08:15;3.38;;;0.90;;
75990;SDS011;64673;52.276;10.560;2023-03-23T13:10:51;2.63;;;0.90;;
75990;SDS011;64673;52.276;10.560;2023-03-23T13:13:19;3.58;;;0.73;;
75990;SDS011;64673;52.276;10.560;2023-03-23T13:23:43;6.13;;;1.13;;
75990;SDS011;64673;52.276;10.560;2023-03-23T13:26:14;3.13;;;0.73;;
75990;SDS011;64673;52.276;10.560;2023-03-23T13:34:01;4.85;;;0.95;;
75990;SDS011;64673;52.276;10.560;2023-03-23T13:39:31;2.17;;;0.70;;
75990;SDS011;64673;52.276;10.560;2023-03-23T13:47:37;3.15;;;0.57;;
75990;SDS011;64673;52.276;10.560;2023-03-23T13:50:12;2.20;;;0.73;;
75990;SDS011;64673;52.276;10.560;2023-03-23T13:52:54;4.72;;;0.82;;
75990;SDS011;64673;52.276;10.560;2023-03-23T13:57:54;2.65;;;0.80;;
75990;SDS011;64673;52.276;10.560;2023-03-23T14:05:31;2.40;;;1.20;;
75990;SDS011;64673;52.276;10.560;2023-03-23T14:10:32;1.05;;;0.40;;
75990;SDS011;64673;52.276;10.560;2023-03-23T14:13:00;1.05;;;0.60;;
75990;SDS011;64673;52.276;10.560;2023-03-23T14:15:30;1.33;;;0.57;;
75990;SDS011;64673;52.276;10.560;2023-03-23T14:18:03;1.13;;;0.45;;
75990;SDS011;64673;52.276;10.560;2023-03-23T14:20:31;0.85;;;0.43;;
75990;SDS011;64673;52.276;10.560;2023-03-23T14:22:59;2.00;;;0.30;;
75990;SDS011;64673;52.276;10.560;2023-03-23T14:25:29;0.93;;;0.30;;
75990;SDS011;64673;52.276;10.560;2023-03-23T14:30:25;0.75;;;0.20;;
75990;SDS011;64673;52.276;10.560;2023-03-23T14:33:03;0.77;;;0.30;;
75990;SDS011;64673;52.276;10.560;2023-03-23T14:35:34;1.75;;;0.38;;
75990;SDS011;64673;52.276;10.560;2023-03-23T14:38:02;1.08;;;0.30;;
75990;SDS011;64673;52.276;10.560;2023-03-23T14:40:29;0.60;;;0.32;;
75990;SDS011;64673;52.276;10.560;2023-03-23T14:42:55;0.60;;;0.30;;
75990;SDS011;64673;52.276;10.560;2023-03-23T14:45:22;0.52;;;0.10;;
75990;SDS011;64673;52.276;10.560;2023-03-23T14:47:57;3.40;;;0.40;;
75990;SDS011;64673;52.276;10.560;2023-03-23T14:50:31;1.38;;;0.47;;
75990;SDS011;64673;52.276;10.560;2023-03-23T14:53:18;2.67;;;0.32;;
75990;SDS011;64673;52.276;10.560;2023-03-23T14:55:48;3.20;;;0.60;;
75990;SDS011;64673;52.276;10.560;2023-03-23T14:58:15;0.95;;;0.43;;
75990;SDS011;64673;52.276;10.560;2023-03-23T15:00:44;0.80;;;0.40;;
75990;SDS011;64673;52.276;10.560;2023-03-23T15:03:23;2.05;;;0.40;;
75990;SDS011;64673;52.276;10.560;2023-03-23T15:05:57;1.23;;;0.77;;
75990;SDS011;64673;52.276;10.560;2023-03-23T15:08:25;2.03;;;0.50;;
75990;SDS011;64673;52.276;10.560;2023-03-23T15:11:07;2.05;;;0.55;;
75990;SDS011;64673;52.276;10.560;2023-03-23T15:13:41;2.05;;;0.85;;
75990;SDS011;64673;52.276;10.560;2023-03-23T15:16:13;1.55;;;0.98;;
75990;SDS011;64673;52.276;10.560;2023-03-23T15:18:51;2.45;;;0.50;;
75990;SDS011;64673;52.276;10.560;2023-03-23T15:21:20;2.65;;;0.73;;
75990;SDS011;64673;52.276;10.560;2023-03-23T15:23:58;1.98;;;0.68;;
75990;SDS011;64673;52.276;10.560;2023-03-23T15:31:43;1.17;;;0.70;;
75990;SDS011;64673;52.276;10.560;2023-03-23T15:34:13;1.83;;;0.60;;
75990;SDS011;64673;52.276;10.560;2023-03-23T15:36:51;1.30;;;0.90;;
75990;SDS011;64673;52.276;10.560;2023-03-23T15:39:19;3.03;;;0.75;;
75990;SDS011;64673;52.276;10.560;2023-03-23T15:41:46;1.10;;;0.77;;
75990;SDS011;64673;52.276;10.560;2023-03-23T15:44:20;1.33;;;0.90;;
75990;SDS011;64673;52.276;10.560;2023-03-23T15:47:13;2.45;;;0.98;;
75990;SDS011;64673;52.276;10.560;2023-03-23T15:49:39;1.83;;;0.80;;
75990;SDS011;64673;52.276;10.560;2023-03-23T15:52:07;3.20;;;0.98;;
75990;SDS011;64673;52.276;10.560;2023-03-23T15:54:35;2.08;;;0.88;;
75990;SDS011;64673;52.276;10.560;2023-03-23T15:57:00;3.55;;;1.10;;
75990;SDS011;64673;52.276;10.560;2023-03-23T15:59:25;1.90;;;0.75;;
75990;SDS011;64673;52.276;10.560;2023-03-23T16:01:51;2.42;;;1.08;;
75990;SDS011;64673;52.276;10.560;2023-03-23T16:04:17;1.85;;;1.13;;
75990;SDS011;64673;52.276;10.560;2023-03-23T16:06:43;2.22;;;1.00;;
75990;SDS011;64673;52.276;10.560;2023-03-23T16:09:17;5.47;;;1.42;;
75990;SDS011;64673;52.276;10.560;2023-03-23T16:11:44;2.38;;;1.17;;
75990;SDS011;64673;52.276;10.560;2023-03-23T16:14:10;2.65;;;1.20;;
75990;SDS011;64673;52.276;10.560;2023-03-23T16:16:37;1.90;;;1.10;;
75990;SDS011;64673;52.276;10.560;2023-03-23T16:19:05;1.42;;;0.80;;
75990;SDS011;64673;52.276;10.560;2023-03-23T16:21:30;2.55;;;0.70;;
75990;SDS011;64673;52.276;10.560;2023-03-23T16:23:56;6.03;;;1.00;;
75990;SDS011;64673;52.276;10.560;2023-03-23T16:26:22;4.65;;;0.90;;
75990;SDS011;64673;52.276;10.560;2023-03-23T16:28:47;1.45;;;0.80;;
75990;SDS011;64673;52.276;10.560;2023-03-23T16:31:13;1.42;;;0.60;;
75990;SDS011;64673;52.276;10.560;2023-03-23T16:33:38;2.40;;;0.80;;
75990;SDS011;64673;52.276;10.560;2023-03-23T16:36:04;1.20;;;0.65;;
75990;SDS011;64673;52.276;10.560;2023-03-23T16:38:30;1.33;;;0.80;;
75990;SDS011;64673;52.276;10.560;2023-03-23T16:40:55;2.90;;;0.90;;
75990;SDS011;64673;52.276;10.560;2023-03-23T16:43:21;1.67;;;0.88;;
75990;SDS011;64673;52.276;10.560;2023-03-23T16:45:46;1.52;;;0.93;;
75990;SDS011;64673;52.276;10.560;2023-03-23T16:48:12;2.97;;;1.02;;
75990;SDS011;64673;52.276;10.560;2023-03-23T16:50:40;2.35;;;0.95;;
75990;SDS011;64673;52.276;10.560;2023-03-23T16:53:06;2.42;;;0.80;;
75990;SDS011;64673;52.276;10.560;2023-03-23T16:55:32;2.38;;;0.90;;
75990;SDS011;64673;52.276;10.560;2023-03-23T16:57:58;2.47;;;0.82;;
75990;SDS011;64673;52.276;10.560;2023-03-23T17:00:24;1.48;;;0.88;;
75990;SDS011;64673;52.276;10.560;2023-03-23T17:02:51;1.58;;;0.90;;
75990;SDS011;64673;52.276;10.560;2023-03-23T17:05:20;2.58;;;1.10;;
75990;SDS011;64673;52.276;10.560;2023-03-23T17:07:47;2.08;;;1.20;;
75990;SDS011;64673;52.276;10.560;2023-03-23T17:10:13;2.28;;;1.08;;
75990;SDS011;64673;52.276;10.560;2023-03-23T17:12:39;2.10;;;1.50;;